createdAt,value
2019-03-23T00:00:21.478Z,12.13
2019-03-23T00:01:35.300Z,12.68
2019-03-23T00:02:48.531Z,12.60
2019-03-23T00:04:01.761Z,11.73
2019-03-23T00:05:14.987Z,11.33
2019-03-23T00:06:30.945Z,12.28
2019-03-23T00:07:43.198Z,10.65
2019-03-23T00:08:56.435Z,11.88
2019-03-23T00:10:09.661Z,11.95
2019-03-23T00:11:22.891Z,12.20
2019-03-23T00:12:36.121Z,11.83
2019-03-23T00:13:49.367Z,11.10
2019-03-23T00:15:02.684Z,10.35
2019-03-23T00:16:15.908Z,11.95
2019-03-23T00:17:29.133Z,11.75
2019-03-23T00:18:42.434Z,11.97
2019-03-23T00:19:55.690Z,11.65
2019-03-23T00:21:08.930Z,10.75
2019-03-23T00:22:22.206Z,10.75
2019-03-23T00:23:35.453Z,10.75
2019-03-23T00:24:48.675Z,10.85
2019-03-23T00:26:01.923Z,10.85
2019-03-23T00:27:15.153Z,9.85
2019-03-23T00:28:28.386Z,10.32
2019-03-23T00:29:41.623Z,11.03
2019-03-23T00:30:54.858Z,9.95
2019-03-23T00:32:08.106Z,10.88
2019-03-23T00:33:21.410Z,9.40
2019-03-23T00:34:34.656Z,10.65
2019-03-23T00:35:47.878Z,9.08
2019-03-23T00:37:01.110Z,10.50
2019-03-23T00:38:14.367Z,9.78
2019-03-23T00:39:27.611Z,9.25
2019-03-23T00:40:40.846Z,9.90
2019-03-23T00:41:54.072Z,9.98
2019-03-23T00:43:07.293Z,9.45
2019-03-23T00:44:20.548Z,9.50
2019-03-23T00:45:33.793Z,10.23
2019-03-23T00:46:47.034Z,10.23
2019-03-23T00:48:00.278Z,9.00
2019-03-23T00:49:13.514Z,10.08
2019-03-23T00:50:26.817Z,9.13
2019-03-23T00:51:40.046Z,9.83
2019-03-23T00:52:53.274Z,10.05
2019-03-23T00:54:06.538Z,9.60
2019-03-23T00:55:19.768Z,9.88
2019-03-23T00:56:33.058Z,10.60
2019-03-23T00:57:46.350Z,10.23
2019-03-23T00:58:59.588Z,10.48
2019-03-23T01:00:13.181Z,11.08
2019-03-23T01:01:26.427Z,10.43
2019-03-23T01:02:41.750Z,10.23
2019-03-23T01:03:54.619Z,10.10
2019-03-23T01:05:07.858Z,11.38
2019-03-23T01:06:21.085Z,10.48
2019-03-23T01:07:34.320Z,11.65
2019-03-23T01:08:47.562Z,11.00
2019-03-23T01:10:00.796Z,10.35
2019-03-23T01:11:14.026Z,10.35
2019-03-23T01:12:27.258Z,11.25
2019-03-23T01:13:41.687Z,11.85
2019-03-23T01:14:54.937Z,11.95
2019-03-23T01:16:08.174Z,11.40
2019-03-23T01:17:21.434Z,11.28
2019-03-23T01:18:34.666Z,11.22
2019-03-23T01:19:47.912Z,11.53
2019-03-23T01:21:01.173Z,11.85
2019-03-23T01:22:14.404Z,11.22
2019-03-23T01:23:27.634Z,10.58
2019-03-23T01:24:40.861Z,11.60
2019-03-23T01:25:54.126Z,10.72
2019-03-23T01:27:07.418Z,12.40
2019-03-23T01:28:20.647Z,12.07
2019-03-23T01:29:33.882Z,11.45
2019-03-23T01:30:47.123Z,11.22
2019-03-23T01:32:00.366Z,11.35
2019-03-23T01:33:13.610Z,11.97
2019-03-23T01:34:26.840Z,11.12
2019-03-23T01:35:40.065Z,11.95
2019-03-23T01:37:02.554Z,12.03
2019-03-23T01:38:09.878Z,11.75
2019-03-23T01:39:23.126Z,12.28
2019-03-23T01:40:36.466Z,12.28
2019-03-23T01:41:49.758Z,12.07
2019-03-23T01:43:02.989Z,13.22
2019-03-23T01:44:16.224Z,11.22
2019-03-23T01:45:29.717Z,12.23
2019-03-23T01:46:42.950Z,12.23
2019-03-23T01:47:56.182Z,13.00
2019-03-23T01:49:09.418Z,13.15
2019-03-23T01:50:22.658Z,12.25
2019-03-23T01:51:35.898Z,11.90
2019-03-23T01:52:49.687Z,11.93
2019-03-23T01:54:02.919Z,12.75
2019-03-23T01:55:16.167Z,11.48
2019-03-23T01:56:31.014Z,13.38
2019-03-23T01:57:44.267Z,12.93
2019-03-23T01:58:57.501Z,12.45
2019-03-23T02:00:12.185Z,12.20
2019-03-23T02:01:25.422Z,12.35
2019-03-23T02:02:38.723Z,12.37
2019-03-23T02:03:51.981Z,12.75
2019-03-23T02:05:06.834Z,11.83
2019-03-23T02:06:20.078Z,11.60
2019-03-23T02:07:33.293Z,12.63
2019-03-23T02:08:46.537Z,12.88
2019-03-23T02:09:59.778Z,12.85
2019-03-23T02:11:13.010Z,12.78
2019-03-23T02:12:26.237Z,12.15
2019-03-23T02:13:40.941Z,12.93
2019-03-23T02:14:54.178Z,12.80
2019-03-23T02:16:08.858Z,12.65
2019-03-23T02:17:22.093Z,12.43
2019-03-23T02:18:35.390Z,13.05
2019-03-23T02:19:48.631Z,12.15
2019-03-23T02:21:02.121Z,12.82
2019-03-23T02:22:15.382Z,11.25
2019-03-23T02:23:28.610Z,12.37
2019-03-23T02:24:41.851Z,13.00
2019-03-23T02:25:55.076Z,12.00
2019-03-23T02:27:08.314Z,11.85
2019-03-23T02:28:21.562Z,12.13
2019-03-23T02:29:34.794Z,12.40
2019-03-23T02:30:48.027Z,11.53
2019-03-23T02:32:01.259Z,10.85
2019-03-23T02:33:14.498Z,11.60
2019-03-23T02:34:27.751Z,12.45
2019-03-23T02:35:40.990Z,12.47
2019-03-23T02:36:54.227Z,11.65
2019-03-23T02:38:07.463Z,11.95
2019-03-23T02:39:20.700Z,12.43
2019-03-23T02:40:33.958Z,12.53
2019-03-23T02:41:47.170Z,12.05
2019-03-23T02:43:00.394Z,12.13
2019-03-23T02:44:13.635Z,11.65
2019-03-23T02:45:30.234Z,11.97
2019-03-23T02:46:42.753Z,11.97
2019-03-23T02:47:55.991Z,13.15
2019-03-23T02:49:09.214Z,12.68
2019-03-23T02:50:22.506Z,13.18
2019-03-23T02:51:35.751Z,12.95
2019-03-23T02:52:48.981Z,13.72
2019-03-23T02:54:02.207Z,13.00
2019-03-23T02:55:15.454Z,13.25
2019-03-23T02:56:28.683Z,11.78
2019-03-23T02:57:41.909Z,13.13
2019-03-23T02:58:55.150Z,14.23
2019-03-23T03:00:13.470Z,12.15
2019-03-23T03:01:26.716Z,12.65
2019-03-23T03:02:39.947Z,11.70
2019-03-23T03:03:53.178Z,11.05
2019-03-23T03:05:07.665Z,12.18
2019-03-23T03:06:20.888Z,11.78
2019-03-23T03:07:41.854Z,12.53
2019-03-23T03:08:49.072Z,12.23
2019-03-23T03:10:07.425Z,11.45
2019-03-23T03:11:20.655Z,11.78
2019-03-23T03:12:34.116Z,11.85
2019-03-23T03:13:47.341Z,11.55
2019-03-23T03:15:00.567Z,12.05
2019-03-23T03:16:13.813Z,12.30
2019-03-23T03:17:27.041Z,10.82
2019-03-23T03:18:40.287Z,11.75
2019-03-23T03:19:55.273Z,11.60
2019-03-23T03:21:08.534Z,11.28
2019-03-23T03:22:21.782Z,11.10
2019-03-23T03:23:35.010Z,11.28
2019-03-23T03:24:48.239Z,12.15
2019-03-23T03:26:01.466Z,12.30
2019-03-23T03:27:14.719Z,11.35
2019-03-23T03:28:27.956Z,12.15
2019-03-23T03:29:42.462Z,11.00
2019-03-23T03:30:56.434Z,12.85
2019-03-23T03:32:09.726Z,11.95
2019-03-23T03:33:23.445Z,13.08
2019-03-23T03:34:36.741Z,12.70
2019-03-23T03:35:50.439Z,12.13
2019-03-23T03:37:03.662Z,12.88
2019-03-23T03:38:16.891Z,12.15
2019-03-23T03:39:30.125Z,13.05
2019-03-23T03:40:43.372Z,12.10
2019-03-23T03:41:57.386Z,11.00
2019-03-23T03:43:10.616Z,12.05
2019-03-23T03:44:23.864Z,11.33
2019-03-23T03:45:37.099Z,12.25
2019-03-23T03:46:50.331Z,12.55
2019-03-23T03:48:05.191Z,11.95
2019-03-23T03:49:18.986Z,11.97
2019-03-23T03:50:32.230Z,12.73
2019-03-23T03:51:45.482Z,11.88
2019-03-23T03:52:58.713Z,12.33
2019-03-23T03:54:12.039Z,13.08
2019-03-23T03:55:25.284Z,12.28
2019-03-23T03:56:41.296Z,12.43
2019-03-23T03:57:56.900Z,11.90
2019-03-23T03:59:09.487Z,11.53
2019-03-23T04:00:22.715Z,12.20
2019-03-23T04:01:35.958Z,11.15
2019-03-23T04:02:49.206Z,12.35
2019-03-23T04:04:02.500Z,12.55
2019-03-23T04:05:15.757Z,12.53
2019-03-23T04:06:29.049Z,12.13
2019-03-23T04:07:42.298Z,11.85
2019-03-23T04:08:55.539Z,12.28
2019-03-23T04:10:09.706Z,12.80
2019-03-23T04:11:23.009Z,12.03
2019-03-23T04:12:36.484Z,11.85
2019-03-23T04:13:49.727Z,12.18
2019-03-23T04:15:03.218Z,11.50
2019-03-23T04:16:17.167Z,11.88
2019-03-23T04:17:30.392Z,11.28
2019-03-23T04:18:43.622Z,12.20
2019-03-23T04:19:56.865Z,11.20
2019-03-23T04:21:10.110Z,12.10
2019-03-23T04:22:23.335Z,11.70
2019-03-23T04:23:36.566Z,11.00
2019-03-23T04:24:49.807Z,11.73
2019-03-23T04:26:03.131Z,12.18
2019-03-23T04:27:16.345Z,12.28
2019-03-23T04:28:33.196Z,11.55
2019-03-23T04:29:46.171Z,11.80
2019-03-23T04:30:59.402Z,11.75
2019-03-23T04:32:12.638Z,12.05
2019-03-23T04:33:25.873Z,11.75
2019-03-23T04:34:39.106Z,11.25
2019-03-23T04:35:52.902Z,10.88
2019-03-23T04:37:06.147Z,11.55
2019-03-23T04:38:22.895Z,11.00
2019-03-23T04:39:34.318Z,10.75
2019-03-23T04:40:47.549Z,10.75
2019-03-23T04:42:00.767Z,10.65
2019-03-23T04:43:14.023Z,10.72
2019-03-23T04:44:27.266Z,10.72
2019-03-23T04:45:40.493Z,11.38
2019-03-23T04:46:53.733Z,10.58
2019-03-23T04:48:06.953Z,11.18
2019-03-23T04:49:20.193Z,10.30
2019-03-23T04:50:33.421Z,10.82
2019-03-23T04:51:46.662Z,10.90
2019-03-23T04:52:59.894Z,10.30
2019-03-23T04:54:13.136Z,10.35
2019-03-23T04:55:26.381Z,11.20
2019-03-23T04:56:40.067Z,10.43
2019-03-23T04:57:53.310Z,10.30
2019-03-23T04:59:06.537Z,11.18
2019-03-23T05:00:20.132Z,10.72
2019-03-23T05:01:33.343Z,9.58
2019-03-23T05:02:46.586Z,10.58
2019-03-23T05:03:59.799Z,10.00
2019-03-23T05:05:13.038Z,9.48
2019-03-23T05:06:26.282Z,10.68
2019-03-23T05:07:39.508Z,11.70
2019-03-23T05:08:52.743Z,10.70
2019-03-23T05:10:06.902Z,9.95
2019-03-23T05:11:20.153Z,11.45
2019-03-23T05:12:33.394Z,10.40
2019-03-23T05:13:46.628Z,11.10
2019-03-23T05:14:59.855Z,10.48
2019-03-23T05:16:13.088Z,10.58
2019-03-23T05:17:26.333Z,9.80
2019-03-23T05:18:39.573Z,10.23
2019-03-23T05:19:52.797Z,10.18
2019-03-23T05:21:06.037Z,9.75
2019-03-23T05:22:19.250Z,9.78
2019-03-23T05:23:33.682Z,10.98
2019-03-23T05:24:46.915Z,10.50
2019-03-23T05:26:00.141Z,10.20
2019-03-23T05:27:13.378Z,9.38
2019-03-23T05:28:26.600Z,10.50
2019-03-23T05:29:39.833Z,10.13
2019-03-23T05:30:53.062Z,10.23
2019-03-23T05:32:06.861Z,10.85
2019-03-23T05:33:20.088Z,10.48
2019-03-23T05:34:33.797Z,10.23
2019-03-23T05:35:47.026Z,11.18
2019-03-23T05:37:00.259Z,9.38
2019-03-23T05:38:13.498Z,10.75
2019-03-23T05:39:26.719Z,9.90
2019-03-23T05:40:39.967Z,10.30
2019-03-23T05:41:53.288Z,9.35
2019-03-23T05:43:06.489Z,10.95
2019-03-23T05:44:22.622Z,10.43
2019-03-23T05:45:35.851Z,8.98
2019-03-23T05:46:49.098Z,10.05
2019-03-23T05:48:03.501Z,10.03
2019-03-23T05:49:16.722Z,10.20
2019-03-23T05:50:29.964Z,9.50
2019-03-23T05:51:43.207Z,9.90
2019-03-23T05:52:56.434Z,9.50
2019-03-23T05:54:09.659Z,10.35
2019-03-23T05:55:22.885Z,8.90
2019-03-23T05:56:36.122Z,9.80
2019-03-23T05:57:49.365Z,9.35
2019-03-23T05:59:02.610Z,10.25
2019-03-23T06:00:17.205Z,10.88
2019-03-23T06:01:30.433Z,10.13
2019-03-23T06:02:43.657Z,9.75
2019-03-23T06:03:57.462Z,9.40
2019-03-23T06:05:11.406Z,9.88
2019-03-23T06:06:24.646Z,10.88
2019-03-23T06:07:38.125Z,9.85
2019-03-23T06:08:55.247Z,10.93
2019-03-23T06:10:06.686Z,9.78
2019-03-23T06:11:20.981Z,9.63
2019-03-23T06:12:34.201Z,9.38
2019-03-23T06:13:47.449Z,10.32
2019-03-23T06:15:00.688Z,9.45
2019-03-23T06:16:13.913Z,8.55
2019-03-23T06:17:27.601Z,9.45
2019-03-23T06:18:40.842Z,10.18
2019-03-23T06:19:54.069Z,9.35
2019-03-23T06:21:07.330Z,10.10
2019-03-23T06:22:20.560Z,9.88
2019-03-23T06:23:34.684Z,8.68
2019-03-23T06:24:48.470Z,9.53
2019-03-23T06:26:01.701Z,9.08
2019-03-23T06:27:14.934Z,9.55
2019-03-23T06:28:28.161Z,9.80
2019-03-23T06:29:41.396Z,8.43
2019-03-23T06:30:55.338Z,8.38
2019-03-23T06:32:09.297Z,9.60
2019-03-23T06:33:22.518Z,8.83
2019-03-23T06:34:37.683Z,9.38
2019-03-23T06:35:50.902Z,8.60
2019-03-23T06:37:04.135Z,8.70
2019-03-23T06:38:17.360Z,9.35
2019-03-23T06:39:31.887Z,9.58
2019-03-23T06:40:45.110Z,9.68
2019-03-23T06:41:58.334Z,9.85
2019-03-23T06:43:11.581Z,9.00
2019-03-23T06:44:24.811Z,10.05
2019-03-23T06:45:38.043Z,9.93
2019-03-23T06:46:53.021Z,9.98
2019-03-23T06:48:06.267Z,10.20
2019-03-23T06:49:19.514Z,10.35
2019-03-23T06:50:35.036Z,9.60
2019-03-23T06:51:48.247Z,9.73
2019-03-23T06:53:01.526Z,8.98
2019-03-23T06:54:14.779Z,9.80
2019-03-23T06:55:28.017Z,8.88
2019-03-23T06:56:41.238Z,9.75
2019-03-23T06:57:55.510Z,8.90
2019-03-23T06:59:08.746Z,9.00
2019-03-23T07:00:21.985Z,8.43
2019-03-23T07:01:35.211Z,8.58
2019-03-23T07:02:49.007Z,8.78
2019-03-23T07:04:02.244Z,8.30
2019-03-23T07:05:15.494Z,9.15
2019-03-23T07:06:28.728Z,8.70
2019-03-23T07:07:41.954Z,9.85
2019-03-23T07:08:55.186Z,9.20
2019-03-23T07:10:12.323Z,9.20
2019-03-23T07:11:25.566Z,8.20
2019-03-23T07:12:38.802Z,9.43
2019-03-23T07:13:52.025Z,8.60
2019-03-23T07:15:19.489Z,9.60
2019-03-23T07:16:26.410Z,8.95
2019-03-23T07:17:39.649Z,9.85
2019-03-23T07:18:54.190Z,9.05
2019-03-23T07:20:09.454Z,8.78
2019-03-23T07:21:23.970Z,8.53
2019-03-23T07:22:37.204Z,9.83
2019-03-23T07:23:50.435Z,8.98
2019-03-23T07:25:06.105Z,8.28
2019-03-23T07:26:19.347Z,8.85
2019-03-23T07:27:32.591Z,8.83
2019-03-23T07:28:45.822Z,8.38
2019-03-23T07:29:59.053Z,8.90
2019-03-23T07:31:12.525Z,8.83
2019-03-23T07:32:25.748Z,9.13
2019-03-23T07:33:38.997Z,8.80
2019-03-23T07:34:52.298Z,8.85
2019-03-23T07:36:05.521Z,8.80
2019-03-23T07:37:18.749Z,8.18
2019-03-23T07:38:32.002Z,8.75
2019-03-23T07:39:45.250Z,8.75
2019-03-23T07:40:58.486Z,9.20
2019-03-23T07:42:12.886Z,9.48
2019-03-23T07:43:26.116Z,8.25
2019-03-23T07:44:39.354Z,8.40
2019-03-23T07:45:52.583Z,8.83
2019-03-23T07:47:05.826Z,8.75
2019-03-23T07:48:19.072Z,8.43
2019-03-23T07:49:32.314Z,9.45
2019-03-23T07:50:45.554Z,8.95
2019-03-23T07:51:58.864Z,9.68
2019-03-23T07:53:12.086Z,8.93
2019-03-23T07:54:25.317Z,9.25
2019-03-23T07:55:38.578Z,8.58
2019-03-23T07:56:51.806Z,8.93
2019-03-23T07:58:06.088Z,9.15
2019-03-23T07:59:19.315Z,9.78
2019-03-23T08:00:32.542Z,9.05
2019-03-23T08:01:45.789Z,8.73
2019-03-23T08:02:59.020Z,8.80
2019-03-23T08:04:12.262Z,8.73
2019-03-23T08:05:25.485Z,8.78
2019-03-23T08:06:38.736Z,9.73
2019-03-23T08:07:51.979Z,9.50
2019-03-23T08:09:05.682Z,9.33
2019-03-23T08:10:29.950Z,10.68
2019-03-23T08:11:43.241Z,10.53
2019-03-23T08:12:56.543Z,10.23
2019-03-23T08:14:09.775Z,10.30
2019-03-23T08:15:23.009Z,9.65
2019-03-23T08:16:36.236Z,10.63
2019-03-23T08:17:50.059Z,10.38
2019-03-23T08:19:03.306Z,10.90
2019-03-23T08:20:16.542Z,10.65
2019-03-23T08:21:29.772Z,11.33
2019-03-23T08:22:43.077Z,10.93
2019-03-23T08:23:56.336Z,11.97
2019-03-23T08:25:09.580Z,12.53
2019-03-23T08:26:23.088Z,12.58
2019-03-23T08:27:36.339Z,11.40
2019-03-23T08:28:49.601Z,11.75
2019-03-23T08:30:02.989Z,11.00
2019-03-23T08:31:16.216Z,11.90
2019-03-23T08:32:29.461Z,12.30
2019-03-23T08:33:42.702Z,11.90
2019-03-23T08:34:58.089Z,13.18
2019-03-23T08:36:11.377Z,12.60
2019-03-23T08:37:24.597Z,12.58
2019-03-23T08:38:37.839Z,12.78
2019-03-23T08:39:51.074Z,14.75
2019-03-23T08:41:04.319Z,13.95
2019-03-23T08:42:17.552Z,14.15
2019-03-23T08:43:31.045Z,13.78
2019-03-23T08:44:44.286Z,14.07
2019-03-23T08:45:57.529Z,14.53
2019-03-23T08:47:10.771Z,13.28
2019-03-23T08:48:23.996Z,14.07
2019-03-23T08:49:37.249Z,13.93
2019-03-23T08:50:50.505Z,12.80
2019-03-23T08:52:03.730Z,13.08
2019-03-23T08:53:16.973Z,13.90
2019-03-23T08:54:30.201Z,14.33
2019-03-23T08:55:43.444Z,13.32
2019-03-23T08:56:56.681Z,15.20
2019-03-23T08:58:09.921Z,16.12
2019-03-23T08:59:23.152Z,14.43
2019-03-23T09:00:36.381Z,13.62
2019-03-23T09:01:49.631Z,13.85
2019-03-23T09:03:03.924Z,16.52
2019-03-23T09:04:17.150Z,17.55
2019-03-23T09:05:30.381Z,17.05
2019-03-23T09:06:43.618Z,18.90
2019-03-23T09:07:56.871Z,20.00
2019-03-23T09:09:10.097Z,18.67
2019-03-23T09:10:23.337Z,18.90
2019-03-23T09:11:36.574Z,19.85
2019-03-23T09:12:49.821Z,19.20
2019-03-23T09:14:03.060Z,18.32
2019-03-23T09:15:16.297Z,19.02
2019-03-23T09:16:29.525Z,19.48
2019-03-23T09:17:42.774Z,18.80
2019-03-23T09:18:56.026Z,17.27
2019-03-23T09:20:10.598Z,18.25
2019-03-23T09:21:23.842Z,18.05
2019-03-23T09:22:37.077Z,17.37
2019-03-23T09:23:50.317Z,19.60
2019-03-23T09:25:04.204Z,18.73
2019-03-23T09:26:17.440Z,20.52
2019-03-23T09:27:30.664Z,19.45
2019-03-23T09:28:43.923Z,19.15
2019-03-23T09:29:57.163Z,19.48
2019-03-23T09:31:10.420Z,18.65
2019-03-23T09:32:23.657Z,19.57
2019-03-23T09:33:36.899Z,20.85
2019-03-23T09:34:50.162Z,19.80
2019-03-23T09:36:03.467Z,18.75
2019-03-23T09:37:17.979Z,19.05
2019-03-23T09:38:31.205Z,18.27
2019-03-23T09:39:45.937Z,20.45
2019-03-23T09:40:59.198Z,19.42
2019-03-23T09:42:12.436Z,18.00
2019-03-23T09:43:27.549Z,18.37
2019-03-23T09:44:40.758Z,18.82
2019-03-23T09:45:53.998Z,19.77
2019-03-23T09:47:07.249Z,20.37
2019-03-23T09:48:20.497Z,20.02
2019-03-23T09:49:33.734Z,19.32
2019-03-23T09:50:46.977Z,19.50
2019-03-23T09:52:00.222Z,21.05
2019-03-23T09:53:13.456Z,21.10
2019-03-23T09:54:26.698Z,20.60
2019-03-23T09:55:39.937Z,21.02
2019-03-23T09:56:53.174Z,20.00
2019-03-23T09:58:06.434Z,20.75
2019-03-23T09:59:19.664Z,20.48
2019-03-23T10:00:32.899Z,20.17
2019-03-23T10:01:46.590Z,21.57
2019-03-23T10:02:59.833Z,20.20
2019-03-23T10:04:13.646Z,20.88
2019-03-23T10:05:26.878Z,20.80
2019-03-23T10:06:40.109Z,22.17
2019-03-23T10:07:54.973Z,21.52
2019-03-23T10:09:08.229Z,21.80
2019-03-23T10:10:22.282Z,23.05
2019-03-23T10:11:35.573Z,22.40
2019-03-23T10:12:48.817Z,22.52
2019-03-23T10:14:03.201Z,23.40
2019-03-23T10:15:16.994Z,22.70
2019-03-23T10:16:30.226Z,22.75
2019-03-23T10:17:43.469Z,23.18
2019-03-23T10:18:56.700Z,21.55
2019-03-23T10:20:09.941Z,22.52
2019-03-23T10:21:23.202Z,22.45
2019-03-23T10:22:36.434Z,22.95
2019-03-23T10:23:49.675Z,21.40
2019-03-23T10:25:04.715Z,22.50
2019-03-23T10:26:17.950Z,22.07
2019-03-23T10:27:31.916Z,23.38
2019-03-23T10:28:45.162Z,23.32
2019-03-23T10:29:58.402Z,22.85
2019-03-23T10:31:11.628Z,22.70
2019-03-23T10:32:24.856Z,24.52
2019-03-23T10:33:39.091Z,23.05
2019-03-23T10:34:52.322Z,22.25
2019-03-23T10:36:05.567Z,22.35
2019-03-23T10:37:18.798Z,22.37
2019-03-23T10:38:32.033Z,23.20
2019-03-23T10:39:45.286Z,23.35
2019-03-23T10:40:58.531Z,23.45
2019-03-23T10:42:12.029Z,22.60
2019-03-23T10:43:25.271Z,21.95
2019-03-23T10:44:39.604Z,22.42
2019-03-23T10:45:52.830Z,22.77
2019-03-23T10:47:06.058Z,22.80
2019-03-23T10:48:19.290Z,22.50
2019-03-23T10:49:32.528Z,21.23
2019-03-23T10:50:45.778Z,22.45
2019-03-23T10:51:59.014Z,21.80
2019-03-23T10:53:22.786Z,21.40
2019-03-23T10:54:28.856Z,22.75
2019-03-23T10:55:42.093Z,23.38
2019-03-23T10:56:55.352Z,22.85
2019-03-23T10:58:08.592Z,23.07
2019-03-23T10:59:21.833Z,24.52
2019-03-23T11:00:35.057Z,22.82
2019-03-23T11:01:48.299Z,23.65
2019-03-23T11:03:01.776Z,24.15
2019-03-23T11:04:15.013Z,21.80
2019-03-23T11:05:28.251Z,21.30
2019-03-23T11:06:41.491Z,22.67
2019-03-23T11:07:54.746Z,21.12
2019-03-23T11:09:07.972Z,23.62
2019-03-23T11:10:21.201Z,24.92
2019-03-23T11:11:34.433Z,22.50
2019-03-23T11:12:47.746Z,21.85
2019-03-23T11:14:01.002Z,25.12
2019-03-23T11:15:14.225Z,24.87
2019-03-23T11:16:27.477Z,23.15
2019-03-23T11:17:40.698Z,22.42
2019-03-23T11:18:53.940Z,22.20
2019-03-23T11:20:11.721Z,23.05
2019-03-23T11:21:24.959Z,22.70
2019-03-23T11:22:38.196Z,22.13
2019-03-23T11:23:51.444Z,21.93
2019-03-23T11:25:06.833Z,20.85
2019-03-23T11:26:20.054Z,21.55
2019-03-23T11:27:34.414Z,21.02
2019-03-23T11:28:49.280Z,22.17
2019-03-23T11:30:02.598Z,20.00
2019-03-23T11:31:15.833Z,18.92
2019-03-23T11:32:29.066Z,18.70
2019-03-23T11:33:42.300Z,17.98
2019-03-23T11:35:01.763Z,18.30
2019-03-23T11:36:59.656Z,19.60
2019-03-23T11:37:44.619Z,21.65
2019-03-23T11:38:59.325Z,22.55
2019-03-23T11:40:12.566Z,23.83
2019-03-23T11:41:27.311Z,23.00
2019-03-23T11:42:49.115Z,23.47
2019-03-23T11:43:55.506Z,24.18
2019-03-23T11:45:10.185Z,24.77
2019-03-23T11:46:23.426Z,24.12
2019-03-23T11:47:36.677Z,24.50
2019-03-23T11:48:51.542Z,19.75
2019-03-23T11:50:05.050Z,18.00
2019-03-23T11:51:18.364Z,18.37
2019-03-23T11:52:31.742Z,17.87
2019-03-23T11:53:44.987Z,22.27
2019-03-23T11:54:58.221Z,23.90
2019-03-23T11:56:11.467Z,26.70
2019-03-23T11:57:24.694Z,25.15
2019-03-23T11:58:37.958Z,23.40
2019-03-23T11:59:51.263Z,24.00
2019-03-23T12:01:04.983Z,23.98
2019-03-23T12:02:18.209Z,24.37
2019-03-23T12:03:34.115Z,26.48
2019-03-23T12:04:47.371Z,26.90
2019-03-23T12:06:01.333Z,27.32
2019-03-23T12:07:15.270Z,26.17
2019-03-23T12:08:28.512Z,26.45
2019-03-23T12:09:41.774Z,26.00
2019-03-23T12:11:02.482Z,26.95
2019-03-23T12:12:10.530Z,26.00
2019-03-23T12:13:23.766Z,24.15
2019-03-23T12:14:37.014Z,25.55
2019-03-23T12:15:50.254Z,23.55
2019-03-23T12:17:03.497Z,24.47
2019-03-23T12:18:16.732Z,27.85
2019-03-23T12:19:29.974Z,26.73
2019-03-23T12:20:45.109Z,26.50
2019-03-23T12:21:58.341Z,24.35
2019-03-23T12:23:11.579Z,25.05
2019-03-23T12:24:24.804Z,25.50
2019-03-23T12:25:38.046Z,26.52
2019-03-23T12:26:52.505Z,24.92
2019-03-23T12:28:05.708Z,23.52
2019-03-23T12:29:18.942Z,24.35
2019-03-23T12:30:32.175Z,23.57
2019-03-23T12:31:45.434Z,23.87
2019-03-23T12:33:06.360Z,24.57
2019-03-23T12:34:19.625Z,25.40
2019-03-23T12:35:32.861Z,23.98
2019-03-23T12:36:46.102Z,26.42
2019-03-23T12:37:59.350Z,24.63
2019-03-23T12:39:12.590Z,25.92
2019-03-23T12:40:25.821Z,23.73
2019-03-23T12:41:39.121Z,25.52
2019-03-23T12:42:52.362Z,25.25
2019-03-23T12:44:05.610Z,24.72
2019-03-23T12:45:18.844Z,24.32
2019-03-23T12:46:32.093Z,25.85
2019-03-23T12:47:45.346Z,24.47
2019-03-23T12:48:58.595Z,24.12
2019-03-23T12:50:11.838Z,23.80
2019-03-23T12:51:25.073Z,25.35
2019-03-23T12:52:38.306Z,25.50
2019-03-23T12:53:51.561Z,25.62
2019-03-23T12:55:06.551Z,24.63
2019-03-23T12:56:19.779Z,23.90
2019-03-23T12:57:33.014Z,22.82
2019-03-23T12:58:46.262Z,23.32
2019-03-23T12:59:59.495Z,21.87
2019-03-23T13:01:12.737Z,23.75
2019-03-23T13:02:25.984Z,22.35
2019-03-23T13:03:39.225Z,23.15
2019-03-23T13:04:52.465Z,23.20
2019-03-23T13:06:05.694Z,23.90
2019-03-23T13:07:18.936Z,22.40
2019-03-23T13:08:32.471Z,24.90
2019-03-23T13:09:45.714Z,24.32
2019-03-23T13:10:58.954Z,23.80
2019-03-23T13:12:12.186Z,23.90
2019-03-23T13:13:25.443Z,22.82
2019-03-23T13:14:38.702Z,25.85
2019-03-23T13:15:52.246Z,24.95
2019-03-23T13:17:05.474Z,23.15
2019-03-23T13:18:26.927Z,23.10
2019-03-23T13:19:33.698Z,26.12
2019-03-23T13:20:46.922Z,24.65
2019-03-23T13:22:00.213Z,24.82
2019-03-23T13:23:13.462Z,25.72
2019-03-23T13:24:26.747Z,26.60
2019-03-23T13:25:39.981Z,26.27
2019-03-23T13:26:53.223Z,26.95
2019-03-23T13:28:06.460Z,25.85
2019-03-23T13:29:19.696Z,25.50
2019-03-23T13:30:32.936Z,26.35
2019-03-23T13:31:46.173Z,27.07
2019-03-23T13:32:59.409Z,27.10
2019-03-23T13:34:12.641Z,26.30
2019-03-23T13:35:25.870Z,25.80
2019-03-23T13:36:39.146Z,26.20
2019-03-23T13:37:54.493Z,26.33
2019-03-23T13:39:07.337Z,25.48
2019-03-23T13:40:20.562Z,27.13
2019-03-23T13:41:33.822Z,27.82
2019-03-23T13:42:48.695Z,27.77
2019-03-23T13:44:01.923Z,26.62
2019-03-23T13:45:15.154Z,26.62
2019-03-23T13:46:28.386Z,26.37
2019-03-23T13:47:41.635Z,27.02
2019-03-23T13:48:54.882Z,26.37
2019-03-23T13:50:08.862Z,26.15
2019-03-23T13:51:22.099Z,25.75
2019-03-23T13:52:35.330Z,25.65
2019-03-23T13:53:48.587Z,23.87
2019-03-23T13:55:01.822Z,24.92
2019-03-23T13:56:15.064Z,24.37
2019-03-23T13:57:28.298Z,26.20
2019-03-23T13:58:41.601Z,26.05
2019-03-23T13:59:54.833Z,26.23
2019-03-23T14:01:08.332Z,25.90
2019-03-23T14:02:21.561Z,27.15
2019-03-23T14:03:34.794Z,24.63
2019-03-23T14:04:50.186Z,26.60
2019-03-23T14:06:03.014Z,25.35
2019-03-23T14:07:16.262Z,26.40
2019-03-23T14:08:30.062Z,27.13
2019-03-23T14:09:43.293Z,25.95
2019-03-23T14:10:56.534Z,26.62
2019-03-23T14:12:09.842Z,26.30
2019-03-23T14:13:24.341Z,25.37
2019-03-23T14:14:37.582Z,26.05
2019-03-23T14:15:50.812Z,25.50
2019-03-23T14:17:04.051Z,25.55
2019-03-23T14:18:20.757Z,26.30
2019-03-23T14:19:34.079Z,26.68
2019-03-23T14:20:50.047Z,24.05
2019-03-23T14:22:03.313Z,25.02
2019-03-23T14:23:21.130Z,24.30
2019-03-23T14:24:34.372Z,26.23
2019-03-23T14:25:47.835Z,24.47
2019-03-23T14:27:01.086Z,25.68
2019-03-23T14:28:16.418Z,25.02
2019-03-23T14:29:29.616Z,24.47
2019-03-23T14:30:42.942Z,24.10
2019-03-23T14:31:56.419Z,23.60
2019-03-23T14:33:09.653Z,24.52
2019-03-23T14:34:23.942Z,24.15
2019-03-23T14:35:37.184Z,24.47
2019-03-23T14:36:50.430Z,23.75
2019-03-23T14:38:03.666Z,24.07
2019-03-23T14:39:16.913Z,23.32
2019-03-23T14:40:30.162Z,24.52
2019-03-23T14:41:43.404Z,23.27
2019-03-23T14:42:56.647Z,24.10
2019-03-23T14:44:09.869Z,24.27
2019-03-23T14:45:23.123Z,22.35
2019-03-23T14:46:36.365Z,24.23
2019-03-23T14:47:49.601Z,23.30
2019-03-23T14:49:03.083Z,23.73
2019-03-23T14:50:16.324Z,23.85
2019-03-23T14:51:29.574Z,24.00
2019-03-23T14:52:42.794Z,22.17
2019-03-23T14:53:56.031Z,23.73
2019-03-23T14:55:09.430Z,22.90
2019-03-23T14:56:22.699Z,22.87
2019-03-23T14:57:35.936Z,23.98
2019-03-23T14:58:49.173Z,24.25
2019-03-23T15:00:02.407Z,22.50
2019-03-23T15:01:15.642Z,22.82
2019-03-23T15:02:29.614Z,22.93
2019-03-23T15:03:42.846Z,23.77
2019-03-23T15:04:56.077Z,25.00
2019-03-23T15:06:09.659Z,23.05
2019-03-23T15:07:24.141Z,23.73
2019-03-23T15:08:37.390Z,24.47
2019-03-23T15:09:50.642Z,25.70
2019-03-23T15:11:06.721Z,23.55
2019-03-23T15:12:19.966Z,24.23
2019-03-23T15:13:33.201Z,24.05
2019-03-23T15:14:46.454Z,24.10
2019-03-23T15:15:59.702Z,23.77
2019-03-23T15:17:12.934Z,23.45
2019-03-23T15:18:26.169Z,25.77
2019-03-23T15:19:39.455Z,23.60
2019-03-23T15:20:53.157Z,23.60
2019-03-23T15:22:06.398Z,22.75
2019-03-23T15:23:20.866Z,24.00
2019-03-23T15:24:34.105Z,24.02
2019-03-23T15:25:47.360Z,24.07
2019-03-23T15:27:00.592Z,22.77
2019-03-23T15:28:14.074Z,23.62
2019-03-23T15:29:27.317Z,24.80
2019-03-23T15:30:40.586Z,23.80
2019-03-23T15:31:53.886Z,26.10
2019-03-23T15:33:07.119Z,26.02
2019-03-23T15:34:20.359Z,25.77
2019-03-23T15:35:33.583Z,26.25
2019-03-23T15:36:46.834Z,25.02
2019-03-23T15:38:00.064Z,24.95
2019-03-23T15:39:13.674Z,26.93
2019-03-23T15:40:28.200Z,27.42
2019-03-23T15:41:41.481Z,26.95
2019-03-23T15:42:54.735Z,27.00
2019-03-23T15:44:07.966Z,27.55
2019-03-23T15:45:21.211Z,28.92
2019-03-23T15:46:34.455Z,32.28
2019-03-23T15:47:47.690Z,29.90
2019-03-23T15:49:00.935Z,30.97
2019-03-23T15:50:14.226Z,29.72
2019-03-23T15:51:27.478Z,30.40